sensor_id;sensor_type;location;lat;lon;timestamp;P1;durP1;ratioP1;P2;durP2;ratioP2
57331;SDS011;43164;50.908;18.092;2022-08-21T00:01:30;12.90;;;6.20;;
57331;SDS011;43164;50.908;18.092;2022-08-21T00:04:06;17.80;;;7.70;;
57331;SDS011;43164;50.908;18.092;2022-08-21T00:06:35;15.00;;;6.80;;
57331;SDS011;43164;50.908;18.092;2022-08-21T00:09:05;12.00;;;6.40;;
57331;SDS011;43164;50.908;18.092;2022-08-21T00:11:34;12.90;;;6.00;;
57331;SDS011;43164;50.908;18.092;2022-08-21T00:14:08;11.30;;;6.00;;
57331;SDS011;43164;50.908;18.092;2022-08-21T00:16:41;12.10;;;6.10;;
57331;SDS011;43164;50.908;18.092;2022-08-21T00:19:19;12.80;;;5.80;;
57331;SDS011;43164;50.908;18.092;2022-08-21T00:21:53;14.20;;;6.30;;
57331;SDS011;43164;50.908;18.092;2022-08-21T00:24:27;12.00;;;5.90;;
57331;SDS011;43164;50.908;18.092;2022-08-21T00:26:56;15.10;;;6.30;;
57331;SDS011;43164;50.908;18.092;2022-08-21T00:29:24;12.00;;;5.80;;
57331;SDS011;43164;50.908;18.092;2022-08-21T00:35:34;15.30;;;6.30;;
57331;SDS011;43164;50.908;18.092;2022-08-21T00:38:04;11.20;;;5.80;;
57331;SDS011;43164;50.908;18.092;2022-08-21T00:40:35;12.70;;;6.40;;
57331;SDS011;43164;50.908;18.092;2022-08-21T00:43:14;14.80;;;7.10;;
57331;SDS011;43164;50.908;18.092;2022-08-21T00:45:45;14.50;;;6.60;;
57331;SDS011;43164;50.908;18.092;2022-08-21T00:48:14;11.00;;;5.70;;
57331;SDS011;43164;50.908;18.092;2022-08-21T00:50:46;11.80;;;5.40;;
57331;SDS011;43164;50.908;18.092;2022-08-21T00:53:26;13.20;;;6.40;;
57331;SDS011;43164;50.908;18.092;2022-08-21T00:55:58;11.50;;;5.90;;
57331;SDS011;43164;50.908;18.092;2022-08-21T00:58:39;15.00;;;6.10;;
57331;SDS011;43164;50.908;18.092;2022-08-21T01:01:08;13.80;;;7.10;;
57331;SDS011;43164;50.908;18.092;2022-08-21T01:03:37;13.30;;;6.80;;
57331;SDS011;43164;50.908;18.092;2022-08-21T01:06:06;14.50;;;7.80;;
57331;SDS011;43164;50.908;18.092;2022-08-21T01:08:35;13.00;;;6.50;;
57331;SDS011;43164;50.908;18.092;2022-08-21T01:11:04;12.60;;;6.90;;
57331;SDS011;43164;50.908;18.092;2022-08-21T01:13:34;16.10;;;8.10;;
57331;SDS011;43164;50.908;18.092;2022-08-21T01:16:15;17.10;;;8.20;;
57331;SDS011;43164;50.908;18.092;2022-08-21T01:18:53;16.30;;;8.30;;
57331;SDS011;43164;50.908;18.092;2022-08-21T01:21:23;16.30;;;6.60;;
57331;SDS011;43164;50.908;18.092;2022-08-21T01:23:59;13.10;;;7.80;;
57331;SDS011;43164;50.908;18.092;2022-08-21T01:26:30;16.10;;;7.90;;
57331;SDS011;43164;50.908;18.092;2022-08-21T01:31:42;14.90;;;7.80;;
57331;SDS011;43164;50.908;18.092;2022-08-21T01:34:11;15.40;;;8.70;;
57331;SDS011;43164;50.908;18.092;2022-08-21T01:36:41;14.20;;;8.50;;
57331;SDS011;43164;50.908;18.092;2022-08-21T01:39:16;17.10;;;8.80;;
57331;SDS011;43164;50.908;18.092;2022-08-21T01:41:45;15.10;;;8.20;;
57331;SDS011;43164;50.908;18.092;2022-08-21T01:44:24;14.90;;;8.20;;
57331;SDS011;43164;50.908;18.092;2022-08-21T01:47:00;15.50;;;9.40;;
57331;SDS011;43164;50.908;18.092;2022-08-21T01:49:45;16.50;;;8.90;;
57331;SDS011;43164;50.908;18.092;2022-08-21T02:01:24;16.30;;;8.90;;
57331;SDS011;43164;50.908;18.092;2022-08-21T02:03:59;14.50;;;7.90;;
57331;SDS011;43164;50.908;18.092;2022-08-21T02:06:28;12.60;;;6.80;;
57331;SDS011;43164;50.908;18.092;2022-08-21T02:16:28;16.00;;;8.10;;
57331;SDS011;43164;50.908;18.092;2022-08-21T02:18:56;14.90;;;7.60;;
57331;SDS011;43164;50.908;18.092;2022-08-21T02:21:25;14.30;;;8.00;;
57331;SDS011;43164;50.908;18.092;2022-08-21T02:23:55;11.70;;;7.00;;
57331;SDS011;43164;50.908;18.092;2022-08-21T02:26:33;13.60;;;7.10;;
57331;SDS011;43164;50.908;18.092;2022-08-21T02:29:08;14.30;;;7.60;;
57331;SDS011;43164;50.908;18.092;2022-08-21T02:38:27;15.10;;;8.50;;
57331;SDS011;43164;50.908;18.092;2022-08-21T02:40:57;15.00;;;8.10;;
57331;SDS011;43164;50.908;18.092;2022-08-21T02:43:33;16.90;;;8.60;;
57331;SDS011;43164;50.908;18.092;2022-08-21T02:46:03;14.80;;;8.90;;
57331;SDS011;43164;50.908;18.092;2022-08-21T02:48:41;17.10;;;9.60;;
57331;SDS011;43164;50.908;18.092;2022-08-21T02:51:11;18.50;;;10.90;;
57331;SDS011;43164;50.908;18.092;2022-08-21T02:53:46;17.40;;;10.20;;
57331;SDS011;43164;50.908;18.092;2022-08-21T02:56:16;16.20;;;9.40;;
57331;SDS011;43164;50.908;18.092;2022-08-21T02:58:51;19.10;;;9.50;;
57331;SDS011;43164;50.908;18.092;2022-08-21T03:01:20;17.30;;;9.70;;
57331;SDS011;43164;50.908;18.092;2022-08-21T03:03:54;17.00;;;9.60;;
57331;SDS011;43164;50.908;18.092;2022-08-21T03:06:24;15.30;;;8.60;;
57331;SDS011;43164;50.908;18.092;2022-08-21T03:08:58;14.80;;;7.70;;
57331;SDS011;43164;50.908;18.092;2022-08-21T03:11:27;14.20;;;8.60;;
57331;SDS011;43164;50.908;18.092;2022-08-21T03:13:56;14.70;;;8.30;;
57331;SDS011;43164;50.908;18.092;2022-08-21T03:16:25;13.00;;;8.40;;
57331;SDS011;43164;50.908;18.092;2022-08-21T03:18:53;17.70;;;8.60;;
57331;SDS011;43164;50.908;18.092;2022-08-21T03:21:21;13.60;;;8.10;;
57331;SDS011;43164;50.908;18.092;2022-08-21T03:23:51;14.50;;;8.10;;
57331;SDS011;43164;50.908;18.092;2022-08-21T03:26:21;13.50;;;7.90;;
57331;SDS011;43164;50.908;18.092;2022-08-21T03:28:49;14.70;;;7.60;;
57331;SDS011;43164;50.908;18.092;2022-08-21T03:31:18;13.00;;;6.80;;
57331;SDS011;43164;50.908;18.092;2022-08-21T03:33:48;14.30;;;8.10;;
57331;SDS011;43164;50.908;18.092;2022-08-21T03:36:16;13.10;;;7.30;;
57331;SDS011;43164;50.908;18.092;2022-08-21T03:38:45;13.70;;;6.80;;
57331;SDS011;43164;50.908;18.092;2022-08-21T03:41:14;13.70;;;7.60;;
57331;SDS011;43164;50.908;18.092;2022-08-21T03:43:42;13.80;;;7.20;;
57331;SDS011;43164;50.908;18.092;2022-08-21T03:46:11;12.40;;;7.40;;
57331;SDS011;43164;50.908;18.092;2022-08-21T03:48:44;15.60;;;8.40;;
57331;SDS011;43164;50.908;18.092;2022-08-21T03:57:42;16.40;;;8.50;;
57331;SDS011;43164;50.908;18.092;2022-08-21T04:00:10;17.70;;;9.30;;
57331;SDS011;43164;50.908;18.092;2022-08-21T04:02:41;19.20;;;8.80;;
57331;SDS011;43164;50.908;18.092;2022-08-21T04:05:09;16.80;;;9.10;;
57331;SDS011;43164;50.908;18.092;2022-08-21T04:07:38;18.50;;;9.20;;
57331;SDS011;43164;50.908;18.092;2022-08-21T04:10:07;13.80;;;8.00;;
57331;SDS011;43164;50.908;18.092;2022-08-21T04:16:14;18.80;;;9.40;;
57331;SDS011;43164;50.908;18.092;2022-08-21T04:18:52;15.10;;;8.90;;
57331;SDS011;43164;50.908;18.092;2022-08-21T04:21:20;14.90;;;8.40;;
57331;SDS011;43164;50.908;18.092;2022-08-21T04:24:12;16.00;;;9.10;;
57331;SDS011;43164;50.908;18.092;2022-08-21T04:29:18;18.80;;;8.80;;
57331;SDS011;43164;50.908;18.092;2022-08-21T04:35:39;15.40;;;7.60;;
57331;SDS011;43164;50.908;18.092;2022-08-21T04:45:38;14.50;;;8.10;;
57331;SDS011;43164;50.908;18.092;2022-08-21T04:48:21;14.00;;;8.90;;
57331;SDS011;43164;50.908;18.092;2022-08-21T04:50:57;14.20;;;9.20;;
57331;SDS011;43164;50.908;18.092;2022-08-21T04:53:41;15.90;;;9.80;;
57331;SDS011;43164;50.908;18.092;2022-08-21T04:56:17;15.30;;;8.10;;
57331;SDS011;43164;50.908;18.092;2022-08-21T04:58:50;15.60;;;8.50;;
57331;SDS011;43164;50.908;18.092;2022-08-21T05:01:27;14.60;;;8.30;;
57331;SDS011;43164;50.908;18.092;2022-08-21T05:07:46;16.90;;;9.20;;
57331;SDS011;43164;50.908;18.092;2022-08-21T05:10:14;13.70;;;8.60;;
57331;SDS011;43164;50.908;18.092;2022-08-21T05:12:43;13.50;;;7.80;;
57331;SDS011;43164;50.908;18.092;2022-08-21T05:15:11;15.00;;;8.60;;
57331;SDS011;43164;50.908;18.092;2022-08-21T05:17:41;15.10;;;8.20;;
57331;SDS011;43164;50.908;18.092;2022-08-21T05:20:09;16.30;;;7.60;;
57331;SDS011;43164;50.908;18.092;2022-08-21T05:22:39;14.80;;;8.00;;
57331;SDS011;43164;50.908;18.092;2022-08-21T05:25:07;14.20;;;7.20;;
57331;SDS011;43164;50.908;18.092;2022-08-21T05:27:37;11.30;;;6.30;;
57331;SDS011;43164;50.908;18.092;2022-08-21T05:30:08;11.30;;;6.60;;
57331;SDS011;43164;50.908;18.092;2022-08-21T05:32:42;15.50;;;7.60;;
57331;SDS011;43164;50.908;18.092;2022-08-21T05:35:09;12.90;;;7.00;;
57331;SDS011;43164;50.908;18.092;2022-08-21T05:37:38;14.30;;;6.90;;
57331;SDS011;43164;50.908;18.092;2022-08-21T05:40:07;14.30;;;7.60;;
57331;SDS011;43164;50.908;18.092;2022-08-21T05:42:36;13.60;;;7.30;;
57331;SDS011;43164;50.908;18.092;2022-08-21T05:45:04;12.30;;;7.80;;
57331;SDS011;43164;50.908;18.092;2022-08-21T05:47:33;13.80;;;7.40;;
57331;SDS011;43164;50.908;18.092;2022-08-21T05:50:02;12.20;;;7.20;;
57331;SDS011;43164;50.908;18.092;2022-08-21T05:52:32;16.90;;;7.70;;
57331;SDS011;43164;50.908;18.092;2022-08-21T05:55:01;15.40;;;6.70;;
57331;SDS011;43164;50.908;18.092;2022-08-21T05:57:30;11.80;;;6.60;;
57331;SDS011;43164;50.908;18.092;2022-08-21T05:59:59;11.10;;;6.90;;
57331;SDS011;43164;50.908;18.092;2022-08-21T06:02:28;11.60;;;6.10;;
57331;SDS011;43164;50.908;18.092;2022-08-21T06:04:59;14.60;;;6.40;;
57331;SDS011;43164;50.908;18.092;2022-08-21T06:07:28;9.10;;;5.80;;
57331;SDS011;43164;50.908;18.092;2022-08-21T06:09:57;13.90;;;5.80;;
57331;SDS011;43164;50.908;18.092;2022-08-21T06:12:26;13.40;;;6.00;;
57331;SDS011;43164;50.908;18.092;2022-08-21T06:14:56;12.10;;;6.10;;
57331;SDS011;43164;50.908;18.092;2022-08-21T06:17:26;10.90;;;5.90;;
57331;SDS011;43164;50.908;18.092;2022-08-21T06:19:55;13.70;;;6.50;;
57331;SDS011;43164;50.908;18.092;2022-08-21T06:22:24;14.10;;;5.80;;
57331;SDS011;43164;50.908;18.092;2022-08-21T06:24:54;9.70;;;3.90;;
57331;SDS011;43164;50.908;18.092;2022-08-21T06:27:22;9.10;;;3.60;;
57331;SDS011;43164;50.908;18.092;2022-08-21T06:29:50;6.90;;;3.20;;
57331;SDS011;43164;50.908;18.092;2022-08-21T06:32:19;8.00;;;3.40;;
57331;SDS011;43164;50.908;18.092;2022-08-21T06:34:47;11.20;;;4.50;;
57331;SDS011;43164;50.908;18.092;2022-08-21T06:37:16;7.60;;;3.30;;
57331;SDS011;43164;50.908;18.092;2022-08-21T06:39:44;7.70;;;3.30;;
57331;SDS011;43164;50.908;18.092;2022-08-21T06:42:16;9.30;;;3.30;;
57331;SDS011;43164;50.908;18.092;2022-08-21T06:44:55;8.90;;;2.90;;
57331;SDS011;43164;50.908;18.092;2022-08-21T06:47:30;9.60;;;3.10;;
57331;SDS011;43164;50.908;18.092;2022-08-21T06:50:00;10.60;;;3.20;;
57331;SDS011;43164;50.908;18.092;2022-08-21T06:52:33;10.50;;;3.20;;
57331;SDS011;43164;50.908;18.092;2022-08-21T06:58:44;11.40;;;2.70;;
57331;SDS011;43164;50.908;18.092;2022-08-21T07:01:15;9.20;;;2.10;;
57331;SDS011;43164;50.908;18.092;2022-08-21T07:03:56;5.80;;;1.70;;
57331;SDS011;43164;50.908;18.092;2022-08-21T07:06:26;5.70;;;1.30;;
57331;SDS011;43164;50.908;18.092;2022-08-21T07:09:03;3.40;;;1.30;;
57331;SDS011;43164;50.908;18.092;2022-08-21T07:11:31;5.00;;;1.40;;
57331;SDS011;43164;50.908;18.092;2022-08-21T07:14:05;6.30;;;2.10;;
57331;SDS011;43164;50.908;18.092;2022-08-21T07:16:35;6.60;;;2.40;;
57331;SDS011;43164;50.908;18.092;2022-08-21T07:19:03;7.80;;;2.20;;
57331;SDS011;43164;50.908;18.092;2022-08-21T07:21:32;4.80;;;1.60;;
57331;SDS011;43164;50.908;18.092;2022-08-21T07:24:00;3.30;;;1.30;;
57331;SDS011;43164;50.908;18.092;2022-08-21T07:26:29;3.80;;;1.20;;
57331;SDS011;43164;50.908;18.092;2022-08-21T07:29:01;4.30;;;1.20;;
57331;SDS011;43164;50.908;18.092;2022-08-21T07:31:30;4.30;;;1.30;;
57331;SDS011;43164;50.908;18.092;2022-08-21T07:33:59;4.90;;;1.10;;
57331;SDS011;43164;50.908;18.092;2022-08-21T07:36:28;4.20;;;1.00;;
57331;SDS011;43164;50.908;18.092;2022-08-21T07:38:56;2.40;;;0.70;;
57331;SDS011;43164;50.908;18.092;2022-08-21T07:41:27;3.20;;;0.70;;
57331;SDS011;43164;50.908;18.092;2022-08-21T07:44:03;1.60;;;0.70;;
57331;SDS011;43164;50.908;18.092;2022-08-21T07:46:36;1.30;;;0.30;;
57331;SDS011;43164;50.908;18.092;2022-08-21T07:49:10;2.00;;;0.80;;
57331;SDS011;43164;50.908;18.092;2022-08-21T07:51:38;2.60;;;0.40;;
57331;SDS011;43164;50.908;18.092;2022-08-21T07:54:14;3.30;;;0.40;;
57331;SDS011;43164;50.908;18.092;2022-08-21T07:56:43;1.00;;;0.20;;
57331;SDS011;43164;50.908;18.092;2022-08-21T07:59:12;1.60;;;0.40;;
57331;SDS011;43164;50.908;18.092;2022-08-21T08:01:41;0.60;;;0.30;;
57331;SDS011;43164;50.908;18.092;2022-08-21T08:04:08;1.40;;;0.20;;
57331;SDS011;43164;50.908;18.092;2022-08-21T08:06:37;1.60;;;0.20;;
57331;SDS011;43164;50.908;18.092;2022-08-21T08:09:05;0.40;;;0.20;;
57331;SDS011;43164;50.908;18.092;2022-08-21T08:11:34;0.30;;;0.10;;
57331;SDS011;43164;50.908;18.092;2022-08-21T08:14:03;1.50;;;0.30;;
57331;SDS011;43164;50.908;18.092;2022-08-21T08:16:32;2.50;;;0.40;;
57331;SDS011;43164;50.908;18.092;2022-08-21T08:19:00;0.90;;;0.30;;
57331;SDS011;43164;50.908;18.092;2022-08-21T08:21:30;0.80;;;0.20;;
57331;SDS011;43164;50.908;18.092;2022-08-21T08:24:00;1.20;;;0.10;;
57331;SDS011;43164;50.908;18.092;2022-08-21T08:26:30;0.80;;;0.20;;
57331;SDS011;43164;50.908;18.092;2022-08-21T08:28:58;1.00;;;0.30;;
57331;SDS011;43164;50.908;18.092;2022-08-21T08:31:27;1.60;;;0.20;;
57331;SDS011;43164;50.908;18.092;2022-08-21T08:33:55;0.90;;;0.20;;
57331;SDS011;43164;50.908;18.092;2022-08-21T08:36:30;0.80;;;0.10;;
57331;SDS011;43164;50.908;18.092;2022-08-21T08:39:04;2.60;;;0.20;;
57331;SDS011;43164;50.908;18.092;2022-08-21T08:41:33;0.90;;;0.10;;
57331;SDS011;43164;50.908;18.092;2022-08-21T08:44:03;0.50;;;0.20;;
57331;SDS011;43164;50.908;18.092;2022-08-21T08:46:36;1.00;;;0.10;;
57331;SDS011;43164;50.908;18.092;2022-08-21T08:52:31;0.30;;;0.20;;
57331;SDS011;43164;50.908;18.092;2022-08-21T08:55:03;0.90;;;0.10;;
57331;SDS011;43164;50.908;18.092;2022-08-21T08:57:34;1.10;;;0.20;;
57331;SDS011;43164;50.908;18.092;2022-08-21T09:00:08;1.40;;;0.20;;
57331;SDS011;43164;50.908;18.092;2022-08-21T09:02:39;0.50;;;0.20;;
57331;SDS011;43164;50.908;18.092;2022-08-21T09:05:21;1.80;;;0.30;;
57331;SDS011;43164;50.908;18.092;2022-08-21T09:10:57;0.40;;;0.20;;
57331;SDS011;43164;50.908;18.092;2022-08-21T09:13:38;1.40;;;0.30;;
57331;SDS011;43164;50.908;18.092;2022-08-21T09:16:22;1.10;;;0.20;;
57331;SDS011;43164;50.908;18.092;2022-08-21T09:19:28;1.90;;;0.20;;
57331;SDS011;43164;50.908;18.092;2022-08-21T09:22:17;0.60;;;0.20;;
57331;SDS011;43164;50.908;18.092;2022-08-21T09:25:10;0.70;;;0.20;;
57331;SDS011;43164;50.908;18.092;2022-08-21T09:27:44;0.50;;;0.20;;
57331;SDS011;43164;50.908;18.092;2022-08-21T09:30:11;0.60;;;0.10;;
57331;SDS011;43164;50.908;18.092;2022-08-21T09:32:40;1.00;;;0.30;;
57331;SDS011;43164;50.908;18.092;2022-08-21T09:35:18;0.50;;;0.20;;
57331;SDS011;43164;50.908;18.092;2022-08-21T09:43:00;2.20;;;0.40;;
57331;SDS011;43164;50.908;18.092;2022-08-21T09:45:29;0.30;;;0.20;;
57331;SDS011;43164;50.908;18.092;2022-08-21T09:48:11;3.00;;;0.30;;
57331;SDS011;43164;50.908;18.092;2022-08-21T09:50:42;0.60;;;0.20;;
57331;SDS011;43164;50.908;18.092;2022-08-21T09:53:18;0.80;;;0.20;;
57331;SDS011;43164;50.908;18.092;2022-08-21T09:55:56;0.50;;;0.20;;
57331;SDS011;43164;50.908;18.092;2022-08-21T09:58:46;0.40;;;0.20;;
57331;SDS011;43164;50.908;18.092;2022-08-21T10:01:16;1.00;;;0.30;;
57331;SDS011;43164;50.908;18.092;2022-08-21T10:03:48;1.00;;;0.20;;
57331;SDS011;43164;50.908;18.092;2022-08-21T10:06:30;1.70;;;0.30;;
57331;SDS011;43164;50.908;18.092;2022-08-21T10:09:05;0.70;;;0.20;;
57331;SDS011;43164;50.908;18.092;2022-08-21T10:11:48;0.90;;;0.30;;
57331;SDS011;43164;50.908;18.092;2022-08-21T10:17:37;0.80;;;0.40;;
57331;SDS011;43164;50.908;18.092;2022-08-21T10:20:30;0.70;;;0.40;;
57331;SDS011;43164;50.908;18.092;2022-08-21T10:23:20;1.10;;;0.50;;
57331;SDS011;43164;50.908;18.092;2022-08-21T10:29:23;1.40;;;0.60;;
57331;SDS011;43164;50.908;18.092;2022-08-21T10:40:40;1.90;;;0.70;;
57331;SDS011;43164;50.908;18.092;2022-08-21T10:43:25;1.40;;;0.70;;
57331;SDS011;43164;50.908;18.092;2022-08-21T10:48:39;2.90;;;1.10;;
57331;SDS011;43164;50.908;18.092;2022-08-21T10:51:21;1.50;;;0.80;;
57331;SDS011;43164;50.908;18.092;2022-08-21T10:56:47;3.80;;;1.00;;
57331;SDS011;43164;50.908;18.092;2022-08-21T11:10:42;2.90;;;0.80;;
57331;SDS011;43164;50.908;18.092;2022-08-21T11:13:16;2.70;;;0.80;;
57331;SDS011;43164;50.908;18.092;2022-08-21T11:16:00;2.30;;;0.90;;
57331;SDS011;43164;50.908;18.092;2022-08-21T11:18:34;1.60;;;0.80;;
57331;SDS011;43164;50.908;18.092;2022-08-21T11:21:30;1.60;;;0.70;;
57331;SDS011;43164;50.908;18.092;2022-08-21T11:27:46;4.30;;;0.90;;
57331;SDS011;43164;50.908;18.092;2022-08-21T11:30:12;2.80;;;0.90;;
57331;SDS011;43164;50.908;18.092;2022-08-21T11:35:53;2.40;;;0.90;;
57331;SDS011;43164;50.908;18.092;2022-08-21T11:38:26;2.40;;;0.90;;
57331;SDS011;43164;50.908;18.092;2022-08-21T11:41:07;4.20;;;1.00;;
57331;SDS011;43164;50.908;18.092;2022-08-21T11:43:57;2.40;;;0.80;;
57331;SDS011;43164;50.908;18.092;2022-08-21T11:46:52;2.70;;;1.10;;
57331;SDS011;43164;50.908;18.092;2022-08-21T11:54:37;2.90;;;1.20;;
57331;SDS011;43164;50.908;18.092;2022-08-21T11:57:21;4.00;;;1.20;;
57331;SDS011;43164;50.908;18.092;2022-08-21T12:02:38;3.70;;;1.60;;
57331;SDS011;43164;50.908;18.092;2022-08-21T12:05:22;3.60;;;1.30;;
57331;SDS011;43164;50.908;18.092;2022-08-21T12:08:04;4.10;;;1.40;;
57331;SDS011;43164;50.908;18.092;2022-08-21T12:10:37;3.50;;;1.40;;
57331;SDS011;43164;50.908;18.092;2022-08-21T12:13:10;4.40;;;1.70;;
57331;SDS011;43164;50.908;18.092;2022-08-21T12:15:52;2.90;;;1.50;;
57331;SDS011;43164;50.908;18.092;2022-08-21T12:18:30;5.10;;;1.60;;
57331;SDS011;43164;50.908;18.092;2022-08-21T12:26:30;4.20;;;1.40;;
57331;SDS011;43164;50.908;18.092;2022-08-21T12:29:16;3.10;;;1.60;;
57331;SDS011;43164;50.908;18.092;2022-08-21T12:34:27;4.60;;;1.50;;
57331;SDS011;43164;50.908;18.092;2022-08-21T12:37:43;3.50;;;1.70;;
57331;SDS011;43164;50.908;18.092;2022-08-21T12:40:14;4.20;;;1.40;;
57331;SDS011;43164;50.908;18.092;2022-08-21T12:42:49;4.00;;;1.80;;
57331;SDS011;43164;50.908;18.092;2022-08-21T12:45:19;5.20;;;1.80;;
57331;SDS011;43164;50.908;18.092;2022-08-21T12:50:46;4.60;;;1.90;;
57331;SDS011;43164;50.908;18.092;2022-08-21T12:53:36;3.50;;;1.80;;
57331;SDS011;43164;50.908;18.092;2022-08-21T12:56:14;4.50;;;1.80;;
57331;SDS011;43164;50.908;18.092;2022-08-21T12:58:47;5.10;;;1.60;;
57331;SDS011;43164;50.908;18.092;2022-08-21T13:04:07;4.50;;;1.90;;
57331;SDS011;43164;50.908;18.092;2022-08-21T13:06:47;6.10;;;1.60;;
57331;SDS011;43164;50.908;18.092;2022-08-21T13:09:19;3.90;;;1.80;;
57331;SDS011;43164;50.908;18.092;2022-08-21T13:11:51;6.80;;;2.20;;
57331;SDS011;43164;50.908;18.092;2022-08-21T13:17:09;5.10;;;2.00;;
57331;SDS011;43164;50.908;18.092;2022-08-21T13:19:52;3.90;;;1.80;;
57331;SDS011;43164;50.908;18.092;2022-08-21T13:22:23;6.00;;;2.40;;
57331;SDS011;43164;50.908;18.092;2022-08-21T13:24:52;5.30;;;2.30;;
57331;SDS011;43164;50.908;18.092;2022-08-21T13:27:28;5.80;;;2.10;;
57331;SDS011;43164;50.908;18.092;2022-08-21T13:30:03;5.60;;;2.10;;
57331;SDS011;43164;50.908;18.092;2022-08-21T13:32:45;5.60;;;2.40;;
57331;SDS011;43164;50.908;18.092;2022-08-21T13:35:27;6.70;;;2.80;;
57331;SDS011;43164;50.908;18.092;2022-08-21T13:37:58;4.80;;;2.10;;
57331;SDS011;43164;50.908;18.092;2022-08-21T13:40:29;4.70;;;2.00;;
57331;SDS011;43164;50.908;18.092;2022-08-21T13:43:20;5.20;;;1.60;;
57331;SDS011;43164;50.908;18.092;2022-08-21T13:45:55;4.20;;;1.80;;
57331;SDS011;43164;50.908;18.092;2022-08-21T13:48:33;5.40;;;2.10;;
57331;SDS011;43164;50.908;18.092;2022-08-21T13:51:02;5.00;;;2.00;;
57331;SDS011;43164;50.908;18.092;2022-08-21T13:53:33;6.60;;;2.30;;
57331;SDS011;43164;50.908;18.092;2022-08-21T13:56:26;5.90;;;2.00;;
57331;SDS011;43164;50.908;18.092;2022-08-21T13:58:58;5.40;;;2.50;;
57331;SDS011;43164;50.908;18.092;2022-08-21T14:01:29;5.40;;;2.30;;
57331;SDS011;43164;50.908;18.092;2022-08-21T14:04:04;4.40;;;1.90;;
57331;SDS011;43164;50.908;18.092;2022-08-21T14:06:47;7.00;;;2.40;;
57331;SDS011;43164;50.908;18.092;2022-08-21T14:09:28;5.80;;;2.20;;
57331;SDS011;43164;50.908;18.092;2022-08-21T14:12:10;5.10;;;2.40;;
57331;SDS011;43164;50.908;18.092;2022-08-21T14:14:42;6.00;;;2.20;;
57331;SDS011;43164;50.908;18.092;2022-08-21T14:17:34;5.90;;;2.60;;
57331;SDS011;43164;50.908;18.092;2022-08-21T14:20:06;6.60;;;2.70;;
57331;SDS011;43164;50.908;18.092;2022-08-21T14:22:46;5.50;;;3.00;;
57331;SDS011;43164;50.908;18.092;2022-08-21T14:27:56;7.50;;;3.20;;
57331;SDS011;43164;50.908;18.092;2022-08-21T14:30:33;7.00;;;3.10;;
57331;SDS011;43164;50.908;18.092;2022-08-21T14:33:04;6.40;;;2.90;;
57331;SDS011;43164;50.908;18.092;2022-08-21T14:35:40;8.70;;;3.20;;
57331;SDS011;43164;50.908;18.092;2022-08-21T14:38:14;6.30;;;3.00;;
57331;SDS011;43164;50.908;18.092;2022-08-21T14:40:51;6.20;;;2.80;;
57331;SDS011;43164;50.908;18.092;2022-08-21T14:43:21;9.10;;;3.40;;
57331;SDS011;43164;50.908;18.092;2022-08-21T14:45:50;8.10;;;4.00;;
57331;SDS011;43164;50.908;18.092;2022-08-21T14:48:18;8.00;;;3.70;;
57331;SDS011;43164;50.908;18.092;2022-08-21T14:50:47;7.60;;;3.30;;
57331;SDS011;43164;50.908;18.092;2022-08-21T14:53:16;7.10;;;3.20;;
57331;SDS011;43164;50.908;18.092;2022-08-21T14:55:45;9.00;;;4.20;;
57331;SDS011;43164;50.908;18.092;2022-08-21T14:58:35;9.70;;;4.20;;
57331;SDS011;43164;50.908;18.092;2022-08-21T15:01:07;10.60;;;4.70;;
57331;SDS011;43164;50.908;18.092;2022-08-21T15:03:36;9.90;;;4.50;;
57331;SDS011;43164;50.908;18.092;2022-08-21T15:06:06;8.50;;;4.10;;
57331;SDS011;43164;50.908;18.092;2022-08-21T15:08:35;9.30;;;4.60;;
57331;SDS011;43164;50.908;18.092;2022-08-21T15:11:07;8.80;;;4.20;;
57331;SDS011;43164;50.908;18.092;2022-08-21T15:13:36;7.00;;;3.40;;
57331;SDS011;43164;50.908;18.092;2022-08-21T15:16:05;10.40;;;5.00;;
57331;SDS011;43164;50.908;18.092;2022-08-21T15:18:34;11.70;;;4.60;;
57331;SDS011;43164;50.908;18.092;2022-08-21T15:21:02;10.00;;;5.70;;
57331;SDS011;43164;50.908;18.092;2022-08-21T15:23:41;11.20;;;5.10;;
57331;SDS011;43164;50.908;18.092;2022-08-21T15:26:10;9.90;;;5.20;;
57331;SDS011;43164;50.908;18.092;2022-08-21T15:28:46;10.00;;;5.10;;
57331;SDS011;43164;50.908;18.092;2022-08-21T15:31:16;8.20;;;4.50;;
57331;SDS011;43164;50.908;18.092;2022-08-21T15:33:51;12.40;;;4.80;;
57331;SDS011;43164;50.908;18.092;2022-08-21T15:36:19;10.20;;;5.40;;
57331;SDS011;43164;50.908;18.092;2022-08-21T15:38:49;11.20;;;4.30;;
57331;SDS011;43164;50.908;18.092;2022-08-21T15:41:17;13.40;;;5.70;;
57331;SDS011;43164;50.908;18.092;2022-08-21T15:43:46;11.80;;;5.60;;
57331;SDS011;43164;50.908;18.092;2022-08-21T15:46:16;11.10;;;6.30;;
57331;SDS011;43164;50.908;18.092;2022-08-21T15:48:45;10.30;;;5.70;;
57331;SDS011;43164;50.908;18.092;2022-08-21T15:51:15;11.30;;;5.80;;
57331;SDS011;43164;50.908;18.092;2022-08-21T15:53:44;11.20;;;5.60;;
57331;SDS011;43164;50.908;18.092;2022-08-21T15:56:24;10.50;;;6.40;;
57331;SDS011;43164;50.908;18.092;2022-08-21T15:58:57;12.10;;;6.30;;
57331;SDS011;43164;50.908;18.092;2022-08-21T16:01:28;11.50;;;5.90;;
57331;SDS011;43164;50.908;18.092;2022-08-21T16:03:55;13.90;;;7.50;;
57331;SDS011;43164;50.908;18.092;2022-08-21T16:06:23;13.50;;;7.80;;
57331;SDS011;43164;50.908;18.092;2022-08-21T16:08:50;14.30;;;7.90;;
57331;SDS011;43164;50.908;18.092;2022-08-21T16:11:19;10.00;;;5.70;;
57331;SDS011;43164;50.908;18.092;2022-08-21T16:13:47;11.70;;;6.80;;
57331;SDS011;43164;50.908;18.092;2022-08-21T16:16:18;13.90;;;7.80;;
57331;SDS011;43164;50.908;18.092;2022-08-21T16:18:52;11.40;;;6.60;;
57331;SDS011;43164;50.908;18.092;2022-08-21T16:21:21;12.30;;;7.60;;
57331;SDS011;43164;50.908;18.092;2022-08-21T16:23:49;11.10;;;6.50;;
57331;SDS011;43164;50.908;18.092;2022-08-21T16:26:18;13.60;;;7.60;;
57331;SDS011;43164;50.908;18.092;2022-08-21T16:28:46;14.70;;;7.50;;
57331;SDS011;43164;50.908;18.092;2022-08-21T16:31:17;13.90;;;8.40;;
57331;SDS011;43164;50.908;18.092;2022-08-21T16:33:48;14.70;;;7.90;;
57331;SDS011;43164;50.908;18.092;2022-08-21T16:36:18;14.90;;;8.70;;
57331;SDS011;43164;50.908;18.092;2022-08-21T16:38:47;10.60;;;6.20;;
57331;SDS011;43164;50.908;18.092;2022-08-21T16:41:17;14.50;;;8.50;;
57331;SDS011;43164;50.908;18.092;2022-08-21T16:43:47;13.00;;;8.20;;
57331;SDS011;43164;50.908;18.092;2022-08-21T16:46:17;13.40;;;8.00;;
57331;SDS011;43164;50.908;18.092;2022-08-21T16:48:45;11.10;;;6.60;;
57331;SDS011;43164;50.908;18.092;2022-08-21T16:51:14;13.10;;;7.50;;
57331;SDS011;43164;50.908;18.092;2022-08-21T16:53:45;13.30;;;8.00;;
57331;SDS011;43164;50.908;18.092;2022-08-21T16:56:13;20.10;;;13.40;;
57331;SDS011;43164;50.908;18.092;2022-08-21T16:58:44;15.50;;;11.40;;
57331;SDS011;43164;50.908;18.092;2022-08-21T17:01:19;11.00;;;7.50;;
57331;SDS011;43164;50.908;18.092;2022-08-21T17:03:52;12.10;;;8.30;;
57331;SDS011;43164;50.908;18.092;2022-08-21T17:06:21;14.10;;;9.40;;
57331;SDS011;43164;50.908;18.092;2022-08-21T17:08:51;12.20;;;8.80;;
57331;SDS011;43164;50.908;18.092;2022-08-21T17:11:21;12.40;;;9.00;;
57331;SDS011;43164;50.908;18.092;2022-08-21T17:13:50;13.40;;;8.30;;
57331;SDS011;43164;50.908;18.092;2022-08-21T17:16:25;15.80;;;10.00;;
57331;SDS011;43164;50.908;18.092;2022-08-21T17:18:54;15.70;;;11.40;;
57331;SDS011;43164;50.908;18.092;2022-08-21T17:21:21;13.00;;;8.10;;